Time;durP1;ratioP1;P1;durP2;ratioP2;P2;SDS_P1;SDS_P2;PMS_P1;PMS_P2;Temp;Humidity;BMP_temperature;BMP_pressure;BME280_temperature;BME280_humidity;BME280_pressure;Samples;Min_cycle;Max_cycle;Signal;HPM_P1;HPM_P2
2023/03/19 00:01:44;;;;;;;21.20;11.43;;;;;;;;;;5012704;28;20021;-71
2023/03/19 00:04:10;;;;;;;22.17;11.60;;;;;;;;;;5012785;28;20085;-70
2023/03/19 00:06:36;;;;;;;29.35;14.52;;;;;;;;;;5012622;28;20096;-70
2023/03/19 00:09:02;;;;;;;24.05;12.85;;;;;;;;;;5012246;28;20080;-70
2023/03/19 00:11:27;;;;;;;27.13;12.20;;;;;;;;;;5012871;28;20029;-70
2023/03/19 00:13:53;;;;;;;24.02;11.20;;;;;;;;;;5012530;28;20467;-70
2023/03/19 00:16:19;;;;;;;22.30;12.15;;;;;;;;;;5012484;28;20080;-69
2023/03/19 00:18:45;;;;;;;19.73;10.70;;;;;;;;;;5011975;28;20049;-70
2023/03/19 00:21:11;;;;;;;21.90;11.30;;;;;;;;;;5011915;28;20567;-70
2023/03/19 00:23:36;;;;;;;22.20;11.27;;;;;;;;;;5012465;28;20395;-70
2023/03/19 00:26:03;;;;;;;30.02;14.98;;;;;;;;;;5012524;28;20022;-70
2023/03/19 00:28:29;;;;;;;20.52;11.93;;;;;;;;;;5011791;28;20073;-70
2023/03/19 00:30:55;;;;;;;26.17;13.50;;;;;;;;;;4994502;28;20548;-70
2023/03/19 00:33:21;;;;;;;21.80;13.27;;;;;;;;;;4994763;28;20282;-70
2023/03/19 00:35:47;;;;;;;24.85;14.35;;;;;;;;;;5011096;28;20021;-69
2023/03/19 00:38:13;;;;;;;27.70;12.75;;;;;;;;;;5018798;28;20026;-69
2023/03/19 00:40:39;;;;;;;21.92;13.60;;;;;;;;;;5031719;28;20487;-69
2023/03/19 00:43:05;;;;;;;26.80;15.15;;;;;;;;;;5031730;28;20113;-69
2023/03/19 00:45:31;;;;;;;25.00;15.50;;;;;;;;;;5013969;28;20045;-69
2023/03/19 00:47:56;;;;;;;20.55;13.93;;;;;;;;;;5029681;28;20092;-70
2023/03/19 00:50:24;;;;;;;21.42;14.23;;;;;;;;;;5014724;28;20022;-69
2023/03/19 00:52:51;;;;;;;22.42;14.52;;;;;;;;;;5032499;28;20136;-69
2023/03/19 00:55:17;;;;;;;23.42;14.02;;;;;;;;;;5032091;28;20053;-70
2023/03/19 00:57:43;;;;;;;26.17;13.65;;;;;;;;;;5013962;28;20033;-70
2023/03/19 01:00:09;;;;;;;24.75;14.55;;;;;;;;;;5013490;28;20146;-69
2023/03/19 01:02:35;;;;;;;23.33;13.85;;;;;;;;;;5014186;28;20182;-70
2023/03/19 01:05:01;;;;;;;23.38;13.73;;;;;;;;;;5014387;28;20531;-70
2023/03/19 01:07:27;;;;;;;20.08;13.55;;;;;;;;;;5031742;28;20041;-70
2023/03/19 01:09:55;;;;;;;22.48;14.07;;;;;;;;;;5013741;28;20022;-69
2023/03/19 01:12:20;;;;;;;22.98;13.85;;;;;;;;;;5013893;28;20037;-68
2023/03/19 01:14:46;;;;;;;23.35;14.98;;;;;;;;;;5013802;28;20068;-70
2023/03/19 01:17:12;;;;;;;25.10;15.35;;;;;;;;;;5013459;28;20148;-70
2023/03/19 01:19:37;;;;;;;26.25;14.05;;;;;;;;;;5013243;28;20033;-70
2023/03/19 01:22:03;;;;;;;24.30;13.02;;;;;;;;;;5013713;28;20060;-70
2023/03/19 01:24:31;;;;;;;22.48;12.73;;;;;;;;;;5013817;28;20027;-70
2023/03/19 01:26:57;;;;;;;21.02;12.40;;;;;;;;;;5013543;28;20461;-70
2023/03/19 01:29:28;;;;;;;20.75;11.38;;;;;;;;;;5008279;28;20018;-70
2023/03/19 01:31:56;;;;;;;22.60;13.30;;;;;;;;;;4977101;28;20030;-70
2023/03/19 01:34:47;;;;;;;21.10;14.60;;;;;;;;;;4994751;28;20037;-69
2023/03/19 01:37:16;;;;;;;20.98;13.45;;;;;;;;;;4983976;28;20568;-69
2023/03/19 01:39:44;;;;;;;27.55;15.15;;;;;;;;;;5023496;28;20030;-69
2023/03/19 01:42:12;;;;;;;27.67;15.10;;;;;;;;;;5031334;28;20033;-69
2023/03/19 01:44:49;;;;;;;19.67;13.75;;;;;;;;;;5002901;28;20487;-70
2023/03/19 01:47:38;;;;;;;21.60;13.00;;;;;;;;;;5017378;28;20128;-69
2023/03/19 01:50:19;;;;;;;;;;;;;;;;;;5035460;28;20041;-70
2023/03/19 01:52:47;;;;;;;18.55;10.98;;;;;;;;;;4999600;28;19937;-70
2023/03/19 01:55:21;;;;;;;17.98;10.85;;;;;;;;;;5013077;28;20029;-70
2023/03/19 01:58:00;;;;;;;20.38;11.15;;;;;;;;;;4994699;28;20392;-70
2023/03/19 02:00:57;;;;;;;20.23;11.40;;;;;;;;;;5014514;28;20046;-70
2023/03/19 02:03:26;;;;;;;18.42;10.52;;;;;;;;;;4999007;28;20064;-70
2023/03/19 02:06:09;;;;;;;15.77;10.05;;;;;;;;;;4997207;28;20026;-69
2023/03/19 02:08:37;;;;;;;19.10;9.82;;;;;;;;;;5013014;28;20385;-69
2023/03/19 02:11:04;;;;;;;15.38;9.10;;;;;;;;;;4996943;28;20022;-69
2023/03/19 02:13:30;;;;;;;17.25;9.95;;;;;;;;;;5030989;28;20033;-69
2023/03/19 02:15:56;;;;;;;15.63;9.27;;;;;;;;;;5034259;28;20072;-69
2023/03/19 02:18:24;;;;;;;15.88;9.50;;;;;;;;;;5033546;28;20038;-69
2023/03/19 02:21:19;;;;;;;19.13;9.60;;;;;;;;;;5016316;28;20037;-69
2023/03/19 02:24:05;;;;;;;18.40;10.98;;;;;;;;;;4993571;28;20042;-69
2023/03/19 02:26:50;;;;;;;15.50;9.90;;;;;;;;;;5006611;28;20045;-69
2023/03/19 02:29:16;;;;;;;16.98;10.13;;;;;;;;;;5011271;28;20052;-69
2023/03/19 02:31:43;;;;;;;22.15;10.88;;;;;;;;;;5006274;28;20034;-69
2023/03/19 02:34:08;;;;;;;22.55;11.77;;;;;;;;;;5022107;28;20029;-69
2023/03/19 02:36:44;;;;;;;21.27;12.23;;;;;;;;;;4996733;28;20049;-70
2023/03/19 02:39:21;;;;;;;18.85;11.90;;;;;;;;;;5009533;28;20029;-69
2023/03/19 02:41:47;;;;;;;20.83;12.82;;;;;;;;;;5014587;28;20026;-70
2023/03/19 02:44:14;;;;;;;20.88;13.00;;;;;;;;;;5009037;28;20124;-70
2023/03/19 02:46:41;;;;;;;24.15;13.13;;;;;;;;;;5013708;28;20068;-70
2023/03/19 02:49:06;;;;;;;22.23;11.90;;;;;;;;;;5015534;28;20037;-68
2023/03/19 02:51:32;;;;;;;21.17;11.73;;;;;;;;;;5033325;28;20029;-70
2023/03/19 02:53:59;;;;;;;23.33;13.68;;;;;;;;;;5033648;28;20033;-70
2023/03/19 02:56:25;;;;;;;23.15;14.05;;;;;;;;;;5015755;28;20041;-70
2023/03/19 02:58:51;;;;;;;24.50;14.55;;;;;;;;;;5014896;28;20506;-69
2023/03/19 03:01:17;;;;;;;18.70;12.73;;;;;;;;;;5022797;28;20038;-70
2023/03/19 03:03:43;;;;;;;18.73;12.55;;;;;;;;;;4998334;28;20025;-70
2023/03/19 03:06:09;;;;;;;18.55;11.65;;;;;;;;;;5033223;28;20029;-70
2023/03/19 03:08:35;;;;;;;16.33;9.30;;;;;;;;;;5033244;28;20021;-70
2023/03/19 03:11:01;;;;;;;17.25;10.05;;;;;;;;;;5033034;28;20084;-70
2023/03/19 03:13:27;;;;;;;14.25;9.70;;;;;;;;;;5015013;28;20049;-70
2023/03/19 03:15:53;;;;;;;23.60;12.70;;;;;;;;;;5015267;28;20100;-69
2023/03/19 03:18:19;;;;;;;19.75;12.50;;;;;;;;;;5014504;28;20030;-69
2023/03/19 03:20:44;;;;;;;20.20;11.65;;;;;;;;;;5015068;28;20036;-70
2023/03/19 03:23:11;;;;;;;16.42;10.30;;;;;;;;;;5014473;28;20053;-70
2023/03/19 03:25:37;;;;;;;19.08;9.77;;;;;;;;;;5032768;28;20495;-70
2023/03/19 03:28:03;;;;;;;17.58;11.30;;;;;;;;;;5021982;28;20048;-70
2023/03/19 03:30:28;;;;;;;16.27;10.98;;;;;;;;;;4995146;28;20034;-70
2023/03/19 03:32:54;;;;;;;20.77;11.65;;;;;;;;;;5012973;28;20404;-70
2023/03/19 03:35:21;;;;;;;20.95;11.90;;;;;;;;;;5013116;28;20030;-70
2023/03/19 03:37:50;;;;;;;20.88;11.82;;;;;;;;;;5022441;28;20396;-70
2023/03/19 03:40:17;;;;;;;18.50;11.05;;;;;;;;;;5023754;28;20029;-70
2023/03/19 03:42:43;;;;;;;19.88;11.40;;;;;;;;;;5025627;28;20032;-70
2023/03/19 03:45:09;;;;;;;17.25;10.80;;;;;;;;;;5012740;28;20488;-70
2023/03/19 03:47:36;;;;;;;16.00;9.63;;;;;;;;;;5009480;28;20034;-70
2023/03/19 03:50:04;;;;;;;15.73;10.23;;;;;;;;;;4995305;28;20025;-70
2023/03/19 03:52:32;;;;;;;15.82;9.75;;;;;;;;;;5001120;28;20022;-70
2023/03/19 03:54:59;;;;;;;13.50;9.38;;;;;;;;;;5011154;28;20046;-70
2023/03/19 03:57:25;;;;;;;12.70;8.63;;;;;;;;;;4993876;28;20419;-69
2023/03/19 03:59:51;;;;;;;14.80;8.52;;;;;;;;;;5010561;28;20037;-70
2023/03/19 04:02:17;;;;;;;16.65;8.55;;;;;;;;;;4996548;28;20026;-69
2023/03/19 04:04:43;;;;;;;13.45;8.48;;;;;;;;;;5032067;28;20037;-69
2023/03/19 04:07:09;;;;;;;12.90;8.27;;;;;;;;;;5006352;28;20571;-70
2023/03/19 04:09:41;;;;;;;16.10;9.10;;;;;;;;;;5013843;28;20116;-70
2023/03/19 04:12:07;;;;;;;20.20;10.32;;;;;;;;;;5030139;28;20040;-70
2023/03/19 04:14:33;;;;;;;16.20;10.98;;;;;;;;;;4994393;28;20021;-70
2023/03/19 04:16:59;;;;;;;16.70;11.25;;;;;;;;;;4994278;28;20136;-70
2023/03/19 04:19:25;;;;;;;21.08;12.45;;;;;;;;;;4993875;28;20037;-69
2023/03/19 04:21:50;;;;;;;24.88;12.57;;;;;;;;;;4993879;28;20044;-70
2023/03/19 04:24:16;;;;;;;18.75;11.07;;;;;;;;;;5010479;28;20084;-70
2023/03/19 04:26:43;;;;;;;17.83;11.68;;;;;;;;;;5012981;28;20036;-70
2023/03/19 04:29:09;;;;;;;20.83;12.40;;;;;;;;;;5029978;28;20029;-70
2023/03/19 04:31:35;;;;;;;20.30;11.90;;;;;;;;;;5029300;28;20459;-69
2023/03/19 04:34:01;;;;;;;20.90;11.52;;;;;;;;;;5029146;28;20053;-70
2023/03/19 04:36:27;;;;;;;18.67;11.02;;;;;;;;;;5030460;28;20045;-70
2023/03/19 04:38:53;;;;;;;22.45;12.15;;;;;;;;;;4998709;28;20030;-70
2023/03/19 04:41:19;;;;;;;18.10;11.18;;;;;;;;;;4993317;28;20056;-70
2023/03/19 04:44:00;;;;;;;20.63;11.30;;;;;;;;;;4993163;28;20029;-69
2023/03/19 04:46:27;;;;;;;18.50;10.68;;;;;;;;;;5009474;28;20116;-70
2023/03/19 04:48:54;;;;;;;15.20;9.85;;;;;;;;;;4992427;28;20112;-69
2023/03/19 04:51:21;;;;;;;14.25;9.75;;;;;;;;;;5012329;28;20041;-69
2023/03/19 04:53:47;;;;;;;14.30;9.40;;;;;;;;;;5000698;28;20025;-69
2023/03/19 04:56:15;;;;;;;16.30;9.65;;;;;;;;;;5009486;28;20033;-69
2023/03/19 04:58:42;;;;;;;14.88;8.88;;;;;;;;;;4994027;28;20550;-69
2023/03/19 05:01:08;;;;;;;14.00;8.75;;;;;;;;;;5019077;28;20030;-70
2023/03/19 05:03:56;;;;;;;14.50;8.40;;;;;;;;;;4993736;28;20025;-69
2023/03/19 05:06:21;;;;;;;14.77;9.50;;;;;;;;;;4979443;28;20030;-72
2023/03/19 05:08:47;;;;;;;16.38;8.95;;;;;;;;;;4991323;28;20348;-71
2023/03/19 05:11:15;;;;;;;14.32;8.32;;;;;;;;;;4995723;28;20600;-69
2023/03/19 05:13:56;;;;;;;17.50;9.82;;;;;;;;;;4986652;28;20071;-70
2023/03/19 05:16:22;;;;;;;16.45;9.43;;;;;;;;;;4996484;28;20061;-70
2023/03/19 05:18:48;;;;;;;16.40;9.18;;;;;;;;;;5002194;28;20025;-70
2023/03/19 05:21:15;;;;;;;21.03;11.63;;;;;;;;;;4954913;28;1387761;-70
2023/03/19 05:23:42;;;;;;;16.52;10.15;;;;;;;;;;5010434;28;20100;-70
2023/03/19 05:26:09;;;;;;;16.48;8.20;;;;;;;;;;5030954;28;20045;-70
2023/03/19 05:28:53;;;;;;;14.88;8.20;;;;;;;;;;5020330;28;20112;-69
2023/03/19 05:31:26;;;;;;;14.00;8.40;;;;;;;;;;5001741;28;20109;-71
2023/03/19 05:33:53;;;;;;;14.07;8.60;;;;;;;;;;4993590;28;20041;-72
2023/03/19 05:36:19;;;;;;;10.00;7.50;;;;;;;;;;4993245;28;20036;-73
2023/03/19 05:39:04;;;;;;;15.88;8.18;;;;;;;;;;5010190;28;20500;-71
2023/03/19 05:41:34;;;;;;;14.93;7.82;;;;;;;;;;5010638;28;20065;-73
2023/03/19 05:44:03;;;;;;;10.25;7.80;;;;;;;;;;4994841;28;20057;-73
2023/03/19 05:46:55;;;;;;;12.52;8.20;;;;;;;;;;4996086;28;20042;-73
2023/03/19 05:49:23;;;;;;;13.43;8.68;;;;;;;;;;5011446;28;20038;-73
2023/03/19 05:51:48;;;;;;;13.57;8.68;;;;;;;;;;4994527;28;20026;-73
2023/03/19 05:54:15;;;;;;;12.50;8.77;;;;;;;;;;4977960;28;20133;-72
2023/03/19 05:57:16;;;;;;;12.02;8.10;;;;;;;;;;4970426;28;20058;-72
2023/03/19 05:59:59;;;;;;;9.43;7.32;;;;;;;;;;4992067;28;20046;-72
2023/03/19 06:02:39;;;;;;;12.55;7.20;;;;;;;;;;5011531;28;20042;-72
2023/03/19 06:05:24;;;;;;;10.45;7.00;;;;;;;;;;5011712;28;20100;-73
2023/03/19 06:07:52;;;;;;;10.05;6.60;;;;;;;;;;4993684;28;20492;-72
2023/03/19 06:10:26;;;;;;;12.13;7.40;;;;;;;;;;5011233;28;20109;-73
2023/03/19 06:12:54;;;;;;;11.65;7.20;;;;;;;;;;5009808;28;20037;-72
2023/03/19 06:15:35;;;;;;;11.80;7.47;;;;;;;;;;4993955;28;20041;-73
2023/03/19 06:18:13;;;;;;;8.90;6.55;;;;;;;;;;4993295;28;20507;-73
2023/03/19 06:20:39;;;;;;;10.48;7.10;;;;;;;;;;5012105;28;20061;-72
2023/03/19 06:23:05;;;;;;;10.57;8.60;;;;;;;;;;4997055;28;20037;-73
2023/03/19 06:25:31;;;;;;;14.05;9.02;;;;;;;;;;5013442;28;20038;-73
2023/03/19 06:27:56;;;;;;;14.20;8.70;;;;;;;;;;5014658;28;20057;-72
2023/03/19 06:30:26;;;;;;;15.10;10.63;;;;;;;;;;5013352;28;20026;-72
2023/03/19 06:32:54;;;;;;;16.95;11.40;;;;;;;;;;4996208;28;20022;-72
2023/03/19 06:35:21;;;;;;;17.67;12.63;;;;;;;;;;5012713;28;20040;-73
2023/03/19 06:37:48;;;;;;;13.38;10.20;;;;;;;;;;4995276;28;20084;-72
2023/03/19 06:40:14;;;;;;;16.50;10.63;;;;;;;;;;5013461;28;20037;-72
2023/03/19 06:42:46;;;;;;;16.40;10.02;;;;;;;;;;4996276;28;20102;-72
2023/03/19 06:45:15;;;;;;;13.77;9.35;;;;;;;;;;5012890;28;20033;-72
2023/03/19 06:47:42;;;;;;;12.90;9.27;;;;;;;;;;5013762;28;20034;-71
2023/03/19 06:50:09;;;;;;;14.55;9.95;;;;;;;;;;5013711;28;20096;-72
2023/03/19 06:52:35;;;;;;;11.77;8.15;;;;;;;;;;5013085;28;20092;-72
2023/03/19 06:55:01;;;;;;;14.25;9.70;;;;;;;;;;5013475;28;20037;-72
2023/03/19 06:57:27;;;;;;;13.35;7.38;;;;;;;;;;5013711;28;20025;-72
2023/03/19 06:59:53;;;;;;;12.35;7.72;;;;;;;;;;5012882;28;20137;-72
2023/03/19 07:02:18;;;;;;;13.70;7.97;;;;;;;;;;5012351;28;20028;-72
2023/03/19 07:04:44;;;;;;;10.73;6.63;;;;;;;;;;5012393;28;20423;-72
2023/03/19 07:07:10;;;;;;;10.40;6.68;;;;;;;;;;5012904;28;20018;-72
2023/03/19 07:09:35;;;;;;;10.63;6.35;;;;;;;;;;5012642;28;20047;-72
2023/03/19 07:12:01;;;;;;;13.77;5.50;;;;;;;;;;5011589;28;20077;-71
2023/03/19 07:14:27;;;;;;;9.35;5.18;;;;;;;;;;5011207;28;20058;-71
2023/03/19 07:16:52;;;;;;;9.57;5.40;;;;;;;;;;5012603;28;20018;-71
2023/03/19 07:19:18;;;;;;;8.88;5.30;;;;;;;;;;5011345;28;20129;-71
2023/03/19 07:21:45;;;;;;;6.82;4.88;;;;;;;;;;4993547;28;20550;-72
2023/03/19 07:24:11;;;;;;;10.50;5.75;;;;;;;;;;5012417;28;20048;-71
2023/03/19 07:26:36;;;;;;;9.77;5.90;;;;;;;;;;5013011;28;20104;-71
2023/03/19 07:29:02;;;;;;;10.23;5.90;;;;;;;;;;4994990;28;20051;-72
2023/03/19 07:31:28;;;;;;;6.82;5.15;;;;;;;;;;5011298;28;20388;-72
2023/03/19 07:33:53;;;;;;;10.00;5.40;;;;;;;;;;4978548;28;20038;-71
2023/03/19 07:36:20;;;;;;;8.60;5.47;;;;;;;;;;5010583;28;20053;-72
2023/03/19 07:38:46;;;;;;;9.95;5.32;;;;;;;;;;5012919;28;20049;-72
2023/03/19 07:41:12;;;;;;;9.30;5.15;;;;;;;;;;4987069;28;20026;-72
2023/03/19 07:43:37;;;;;;;9.27;5.57;;;;;;;;;;5007334;28;20037;-72
2023/03/19 07:46:03;;;;;;;9.35;5.95;;;;;;;;;;5012284;28;20114;-72
2023/03/19 07:48:29;;;;;;;8.68;5.93;;;;;;;;;;4994219;28;20036;-72
2023/03/19 07:50:55;;;;;;;10.85;6.00;;;;;;;;;;5006896;28;20428;-71
2023/03/19 07:53:21;;;;;;;9.30;6.00;;;;;;;;;;5009843;28;20033;-72
2023/03/19 07:55:47;;;;;;;11.90;6.45;;;;;;;;;;5009540;28;20459;-70
2023/03/19 07:58:12;;;;;;;13.20;6.88;;;;;;;;;;5009748;28;20484;-70
2023/03/19 08:00:38;;;;;;;10.00;6.07;;;;;;;;;;5009048;28;20023;-72
2023/03/19 08:03:04;;;;;;;10.07;6.30;;;;;;;;;;5011701;28;20487;-71
2023/03/19 08:05:29;;;;;;;11.50;6.88;;;;;;;;;;4991679;28;20034;-72
2023/03/19 08:07:56;;;;;;;10.98;7.22;;;;;;;;;;5009910;28;20034;-71
2023/03/19 08:10:21;;;;;;;11.25;6.78;;;;;;;;;;5011600;28;20021;-71
2023/03/19 08:12:47;;;;;;;8.93;6.22;;;;;;;;;;5009411;28;20030;-73
2023/03/19 08:15:13;;;;;;;9.77;5.35;;;;;;;;;;5010941;28;20356;-72
2023/03/19 08:17:39;;;;;;;9.50;5.20;;;;;;;;;;5002221;28;20535;-72
2023/03/19 08:20:08;;;;;;;11.75;6.07;;;;;;;;;;5011150;28;20030;-73
2023/03/19 08:22:35;;;;;;;8.70;5.55;;;;;;;;;;5011592;28;20030;-72
2023/03/19 08:25:02;;;;;;;10.43;5.88;;;;;;;;;;5011525;28;20026;-71
2023/03/19 08:27:30;;;;;;;8.48;5.13;;;;;;;;;;5011786;28;20042;-72
2023/03/19 08:29:57;;;;;;;8.80;6.03;;;;;;;;;;5010391;28;20049;-72
2023/03/19 08:32:23;;;;;;;10.32;5.43;;;;;;;;;;5011648;28;20057;-72
2023/03/19 08:34:50;;;;;;;8.30;6.03;;;;;;;;;;5011194;28;20029;-73
2023/03/19 08:37:16;;;;;;;10.27;6.10;;;;;;;;;;5011377;28;20109;-72
2023/03/19 08:39:42;;;;;;;9.52;5.50;;;;;;;;;;5011490;28;20109;-72
2023/03/19 08:42:07;;;;;;;8.52;5.68;;;;;;;;;;5010980;28;20034;-72
2023/03/19 08:44:33;;;;;;;9.95;5.57;;;;;;;;;;5005711;28;20077;-71
2023/03/19 08:46:59;;;;;;;8.57;5.55;;;;;;;;;;5011426;28;20069;-72
2023/03/19 08:49:24;;;;;;;7.57;5.43;;;;;;;;;;5011692;28;20424;-75
2023/03/19 08:51:50;;;;;;;7.88;5.50;;;;;;;;;;5011056;28;20030;-74
2023/03/19 08:54:16;;;;;;;8.07;5.63;;;;;;;;;;5008080;28;20372;-73
2023/03/19 08:56:42;;;;;;;9.45;4.63;;;;;;;;;;5010973;28;20403;-73
2023/03/19 08:59:09;;;;;;;8.18;5.43;;;;;;;;;;5010370;28;20488;-72
2023/03/19 09:01:36;;;;;;;10.48;5.80;;;;;;;;;;5010254;28;20180;-72
2023/03/19 09:04:01;;;;;;;8.80;5.88;;;;;;;;;;5010052;28;20026;-72
2023/03/19 09:06:27;;;;;;;7.80;4.88;;;;;;;;;;5010624;28;20042;-72
2023/03/19 09:08:53;;;;;;;7.30;4.68;;;;;;;;;;4985761;28;20109;-72
2023/03/19 09:11:18;;;;;;;6.63;4.50;;;;;;;;;;5011640;28;20042;-72
2023/03/19 09:13:44;;;;;;;7.03;4.55;;;;;;;;;;5011280;28;20026;-72
2023/03/19 09:16:10;;;;;;;6.45;4.13;;;;;;;;;;5013218;28;20037;-72
2023/03/19 09:18:36;;;;;;;8.07;5.28;;;;;;;;;;5013014;28;20029;-70
2023/03/19 09:21:02;;;;;;;7.45;4.35;;;;;;;;;;5013089;28;20037;-71
2023/03/19 09:23:27;;;;;;;6.97;4.65;;;;;;;;;;5031080;28;20056;-71
2023/03/19 09:25:54;;;;;;;7.45;4.43;;;;;;;;;;5024892;28;20064;-72
2023/03/19 09:28:20;;;;;;;7.10;4.47;;;;;;;;;;5010900;28;20073;-71
2023/03/19 09:30:47;;;;;;;9.23;4.45;;;;;;;;;;5006179;28;20044;-71
2023/03/19 09:33:14;;;;;;;9.32;5.10;;;;;;;;;;5008938;28;20060;-73
2023/03/19 09:35:40;;;;;;;6.05;4.63;;;;;;;;;;5011363;28;20046;-72
2023/03/19 09:38:06;;;;;;;7.72;4.20;;;;;;;;;;5030482;28;20033;-72
2023/03/19 09:40:41;;;;;;;5.18;4.13;;;;;;;;;;5017042;28;20089;-71
2023/03/19 09:43:29;;;;;;;7.25;4.78;;;;;;;;;;5003673;28;20101;-72
2023/03/19 09:45:56;;;;;;;9.13;5.35;;;;;;;;;;5010984;28;20048;-72
2023/03/19 09:48:38;;;;;;;7.43;4.57;;;;;;;;;;5012082;28;20321;-72
2023/03/19 09:51:08;;;;;;;10.57;4.80;;;;;;;;;;5030894;28;20041;-71
2023/03/19 09:54:04;;;;;;;9.95;5.40;;;;;;;;;;5030638;28;20128;-72
2023/03/19 09:56:32;;;;;;;6.40;4.40;;;;;;;;;;5033819;28;20041;-72
2023/03/19 09:58:58;;;;;;;7.50;3.88;;;;;;;;;;5026141;28;20037;-71
2023/03/19 10:01:25;;;;;;;6.72;4.38;;;;;;;;;;5021192;28;20045;-72
2023/03/19 10:04:12;;;;;;;6.47;4.47;;;;;;;;;;5014402;28;20514;-72
2023/03/19 10:06:39;;;;;;;6.22;3.95;;;;;;;;;;5005602;28;20034;-70
2023/03/19 10:09:11;;;;;;;9.40;4.22;;;;;;;;;;5034199;28;20029;-70
2023/03/19 10:11:56;;;;;;;7.97;4.30;;;;;;;;;;5034244;28;20395;-71
2023/03/19 10:14:43;;;;;;;5.03;3.58;;;;;;;;;;5034369;28;20096;-72
2023/03/19 10:17:18;;;;;;;6.07;4.03;;;;;;;;;;4996842;28;20092;-71
2023/03/19 10:19:50;;;;;;;6.95;4.03;;;;;;;;;;5013519;28;20052;-71
2023/03/19 10:22:43;;;;;;;7.07;4.55;;;;;;;;;;5013814;28;20038;-72
2023/03/19 10:25:15;;;;;;;8.50;4.50;;;;;;;;;;5008395;28;20511;-71
2023/03/19 10:27:45;;;;;;;11.52;6.40;;;;;;;;;;5014383;28;20034;-72
2023/03/19 10:30:14;;;;;;;7.05;3.97;;;;;;;;;;5002266;28;20080;-72
2023/03/19 10:32:43;;;;;;;8.00;4.22;;;;;;;;;;5015009;28;20037;-72
2023/03/19 10:35:20;;;;;;;6.78;4.63;;;;;;;;;;5013740;28;20022;-71
2023/03/19 10:37:49;;;;;;;6.00;3.78;;;;;;;;;;5013703;28;20045;-71
2023/03/19 10:40:33;;;;;;;8.15;3.95;;;;;;;;;;5033411;28;20025;-72
2023/03/19 10:43:23;;;;;;;8.98;3.78;;;;;;;;;;5015589;28;20483;-72
2023/03/19 10:45:49;;;;;;;6.85;3.80;;;;;;;;;;5032743;28;20037;-71
2023/03/19 10:48:17;;;;;;;6.57;4.15;;;;;;;;;;5015959;28;20032;-72
2023/03/19 10:50:58;;;;;;;5.78;3.78;;;;;;;;;;5034086;28;20037;-72
2023/03/19 10:53:24;;;;;;;6.75;3.58;;;;;;;;;;5012860;28;20448;-74
2023/03/19 10:55:54;;;;;;;6.78;3.55;;;;;;;;;;5013430;28;20064;-71
2023/03/19 10:58:26;;;;;;;4.93;3.50;;;;;;;;;;5011878;28;20026;-71
2023/03/19 11:01:05;;;;;;;5.35;3.50;;;;;;;;;;5009724;28;20095;-72
2023/03/19 11:03:33;;;;;;;5.22;3.45;;;;;;;;;;5010276;28;20038;-72
2023/03/19 11:06:33;;;;;;;9.70;4.60;;;;;;;;;;5011447;28;20076;-72
2023/03/19 11:09:14;;;;;;;7.32;4.40;;;;;;;;;;5015507;28;20112;-72
2023/03/19 11:11:46;;;;;;;6.53;3.95;;;;;;;;;;5014820;28;20046;-72
2023/03/19 11:14:18;;;;;;;6.05;4.00;;;;;;;;;;5013294;28;20128;-72
2023/03/19 11:17:02;;;;;;;8.80;4.40;;;;;;;;;;5013105;28;20040;-72
2023/03/19 11:19:31;;;;;;;6.75;4.05;;;;;;;;;;5013003;28;20038;-72
2023/03/19 11:22:14;;;;;;;7.07;3.95;;;;;;;;;;5022214;28;20034;-73
2023/03/19 11:24:47;;;;;;;6.20;4.40;;;;;;;;;;5032842;28;20042;-72
2023/03/19 11:27:12;;;;;;;7.43;4.57;;;;;;;;;;5007081;28;20395;-72
2023/03/19 11:29:42;;;;;;;7.15;3.78;;;;;;;;;;5009488;28;20033;-71
2023/03/19 11:32:34;;;;;;;5.85;3.90;;;;;;;;;;5004739;28;20036;-71
2023/03/19 11:35:10;;;;;;;8.90;4.45;;;;;;;;;;5007665;28;20053;-71
2023/03/19 11:37:55;;;;;;;9.52;5.45;;;;;;;;;;5012458;28;20492;-71
2023/03/19 11:40:30;;;;;;;7.43;4.50;;;;;;;;;;5020308;28;20041;-71
2023/03/19 11:42:59;;;;;;;11.48;4.63;;;;;;;;;;5012096;28;20479;-71
2023/03/19 11:45:46;;;;;;;9.98;6.05;;;;;;;;;;5012415;28;20030;-70
2023/03/19 11:48:24;;;;;;;8.32;5.70;;;;;;;;;;5012191;28;20112;-71
2023/03/19 11:51:00;;;;;;;7.43;4.90;;;;;;;;;;5004974;28;20110;-72
2023/03/19 11:53:49;;;;;;;8.05;4.57;;;;;;;;;;5012163;28;20046;-72
2023/03/19 11:56:32;;;;;;;10.50;4.40;;;;;;;;;;5000630;28;20046;-71
2023/03/19 11:59:22;;;;;;;6.50;4.63;;;;;;;;;;5010361;28;20033;-72
2023/03/19 12:02:12;;;;;;;7.28;4.43;;;;;;;;;;5010429;28;20420;-72
2023/03/19 12:04:38;;;;;;;7.85;5.10;;;;;;;;;;5011465;28;20619;-72
2023/03/19 12:07:04;;;;;;;6.35;4.60;;;;;;;;;;5009873;28;20112;-73
2023/03/19 12:09:48;;;;;;;8.23;5.07;;;;;;;;;;5010656;28;20037;-72
2023/03/19 12:12:23;;;;;;;7.13;4.18;;;;;;;;;;5020056;28;20038;-72
2023/03/19 12:15:11;;;;;;;7.40;4.78;;;;;;;;;;5036210;28;20411;-73
2023/03/19 12:17:43;;;;;;;5.85;3.80;;;;;;;;;;5030488;28;20037;-72
2023/03/19 12:20:18;;;;;;;5.50;3.70;;;;;;;;;;5031788;28;20044;-71
2023/03/19 12:23:06;;;;;;;6.25;4.05;;;;;;;;;;5011272;28;20037;-72
2023/03/19 12:25:42;;;;;;;6.32;3.92;;;;;;;;;;5009511;28;20381;-72
2023/03/19 12:28:50;;;;;;;5.82;3.70;;;;;;;;;;5011414;28;20026;-71
2023/03/19 12:31:45;;;;;;;5.05;3.60;;;;;;;;;;4989486;28;20145;-71
2023/03/19 12:34:37;;;;;;;7.20;3.70;;;;;;;;;;5012215;28;20037;-73
2023/03/19 12:37:17;;;;;;;8.73;4.20;;;;;;;;;;5005284;28;20524;-72
2023/03/19 12:40:03;;;;;;;5.63;3.88;;;;;;;;;;5003722;28;20076;-71
2023/03/19 12:42:36;;;;;;;7.70;2.95;;;;;;;;;;5007819;28;20084;-71
2023/03/19 12:45:05;;;;;;;5.35;4.03;;;;;;;;;;5011647;28;20100;-71
2023/03/19 12:47:37;;;;;;;6.18;3.55;;;;;;;;;;4994593;28;20084;-72
2023/03/19 12:50:07;;;;;;;5.55;3.20;;;;;;;;;;5012092;28;20423;-70
2023/03/19 12:52:39;;;;;;;5.85;3.70;;;;;;;;;;5011811;28;20550;-71
2023/03/19 12:55:21;;;;;;;8.32;5.18;;;;;;;;;;5012033;28;20405;-71
2023/03/19 12:57:50;;;;;;;4.90;3.38;;;;;;;;;;5012258;28;20030;-73
2023/03/19 13:00:39;;;;;;;5.47;3.30;;;;;;;;;;5011835;28;20076;-72
2023/03/19 13:03:26;;;;;;;5.13;3.65;;;;;;;;;;5011932;28;20025;-73
2023/03/19 13:06:23;;;;;;;7.50;4.03;;;;;;;;;;5012180;28;20376;-72
2023/03/19 13:08:57;;;;;;;6.95;5.05;;;;;;;;;;5013664;28;20437;-73
2023/03/19 13:11:43;;;;;;;4.55;3.20;;;;;;;;;;5032139;28;20040;-71
2023/03/19 13:14:28;;;;;;;6.25;3.58;;;;;;;;;;5031878;28;20041;-72
2023/03/19 13:17:17;;;;;;;5.00;3.38;;;;;;;;;;5013940;28;20399;-72
2023/03/19 13:19:46;;;;;;;8.75;3.40;;;;;;;;;;5020754;28;20502;-71
2023/03/19 13:22:30;;;;;;;6.57;4.13;;;;;;;;;;5031240;28;20052;-72
2023/03/19 13:24:59;;;;;;;5.65;3.40;;;;;;;;;;5031484;28;20033;-71
2023/03/19 13:27:34;;;;;;;9.85;6.15;;;;;;;;;;5031515;28;20424;-72
2023/03/19 13:30:06;;;;;;;3.72;2.90;;;;;;;;;;5032766;28;20033;-72
2023/03/19 13:32:46;;;;;;;82.45;41.45;;;;;;;;;;5035591;28;20033;-72
2023/03/19 13:35:24;;;;;;;9.55;5.70;;;;;;;;;;5035597;28;20033;-72
2023/03/19 13:38:03;;;;;;;7.03;4.18;;;;;;;;;;5017478;28;20087;-72
2023/03/19 13:40:41;;;;;;;6.10;3.53;;;;;;;;;;5033923;28;20084;-72
2023/03/19 13:43:41;;;;;;;18.88;11.02;;;;;;;;;;5034065;28;20128;-69
2023/03/19 13:46:16;;;;;;;9.10;4.75;;;;;;;;;;4992636;28;20037;-73
2023/03/19 13:48:44;;;;;;;7.78;4.25;;;;;;;;;;5035143;28;20037;-72
2023/03/19 13:51:19;;;;;;;4.88;3.10;;;;;;;;;;5035365;28;20021;-72
2023/03/19 13:53:52;;;;;;;6.50;3.08;;;;;;;;;;5036862;28;20037;-71
2023/03/19 13:56:19;;;;;;;4.80;3.00;;;;;;;;;;5036481;28;20061;-71
2023/03/19 13:58:53;;;;;;;6.38;3.17;;;;;;;;;;5035723;28;20034;-71
2023/03/19 14:01:24;;;;;;;;;;;;;;;;;;5034874;28;20486;-70
2023/03/19 14:04:28;;;;;;;4.40;2.90;;;;;;;;;;5034847;28;19920;-71
2023/03/19 14:07:15;;;;;;;5.75;3.10;;;;;;;;;;5024422;28;20135;-70
2023/03/19 14:09:42;;;;;;;38.78;23.85;;;;;;;;;;5026637;28;20108;-71
2023/03/19 14:12:28;;;;;;;12.50;7.95;;;;;;;;;;5034802;28;20372;-71
2023/03/19 14:14:57;;;;;;;6.13;4.15;;;;;;;;;;5034784;28;20033;-72
2023/03/19 14:17:40;;;;;;;6.57;4.47;;;;;;;;;;5034510;28;20071;-72
2023/03/19 14:20:12;;;;;;;14.70;8.18;;;;;;;;;;5028618;28;20519;-70
2023/03/19 14:22:53;;;;;;;7.00;4.30;;;;;;;;;;5012985;28;20041;-72
2023/03/19 14:25:23;;;;;;;8.82;5.55;;;;;;;;;;5014512;28;20533;-71
2023/03/19 14:27:53;;;;;;;5.55;2.92;;;;;;;;;;5014760;28;20045;-73
2023/03/19 14:30:43;;;;;;;7.05;3.47;;;;;;;;;;5013718;28;20109;-73
2023/03/19 14:33:23;;;;;;;4.45;3.08;;;;;;;;;;5014964;28;20037;-71
2023/03/19 14:35:49;;;;;;;6.20;3.78;;;;;;;;;;4997075;28;20030;-71
2023/03/19 14:38:26;;;;;;;5.13;3.58;;;;;;;;;;5010692;28;20028;-71
2023/03/19 14:40:52;;;;;;;4.00;2.88;;;;;;;;;;5013762;28;20129;-72
2023/03/19 14:43:52;;;;;;;4.85;3.20;;;;;;;;;;5013952;28;20112;-71
2023/03/19 14:46:40;;;;;;;8.57;3.88;;;;;;;;;;5013757;28;20053;-70
2023/03/19 14:49:33;;;;;;;7.93;3.70;;;;;;;;;;5013945;28;20034;-72
2023/03/19 14:52:28;;;;;;;5.82;2.90;;;;;;;;;;5006534;28;20377;-73
2023/03/19 14:55:00;;;;;;;4.97;3.30;;;;;;;;;;4970727;28;20510;-71
2023/03/19 14:57:34;;;;;;;4.80;3.22;;;;;;;;;;5013193;28;20049;-73
2023/03/19 15:00:00;;;;;;;5.95;4.10;;;;;;;;;;5013440;28;20431;-71